KSJT Airport (San Angelo Rgnl/Mathis Field) Information

FAA: SJT - ICAO: KSJT

KSJT Airport Location

State Texas
County Tom Green
City San Angelo
KSJT Airport is 7 miles southwest of San Angelo, TX.
Latitude 31-21-27.8940N
Longitude 100-29-46.6950W
Elevation 1,918ft

KSJT Airport METARs

METAR KSJT 180651Z AUTO 18005KT 10SM CLR 11/05 A3014 RMK AO2 SLP198 T01060050
Altimeter 30.14"
Temperature 10.6°C (51.1°F)
Wind 180° at 5KT
Clouds Skies are clear.
Visibility 10.0mi
Time observed: 2021-10-18T06:51:00Z

KSJT Airport Details

Status Operational
Activation September 1943
Ownership Public
Usage Public
Chart SAN ANTONIO
ATC on-site Yes
Beacon schedule sunset-sunrise
Beacon color clear green

KSJT Airport Contacts

Owner CITY OF SAN ANGELO
Owner address 72 W COLLEGE ST, SAN ANGELO, TX 76903
Owner phone 325-659-6409
Manager GRAHAM & CINDY SWANK
Manager address PO BOX 189, ERA, TX 76238
Manager phone 940-768-2223

KSJT Airport (San Angelo Rgnl/Mathis Field) Radio Frequencies

KSJT (Airport) Radio Frequencies

UNICOM 122.95
Common traffic advisory frequency (CTAF) 118.3